Oliver Springs, Tennessee
Current Conditions -  °F | °C
As of 8:53 AM on Wednesday 26 Nov 2014 (Local Time) from KOQT Reporting Station
Broken Clouds Broken Clouds  
Wind Chill: 43°   Ceiling: 7500
Heat Index: 43°   Visibility: 10mi
Dew Point: 30°   Wind: 3mph
Humidity: 60%   Direction: NA
Pressure: 30.07"   Gusts: NA
Location:  36.04°N, 84.34°W
Report Text: KOQT 261353Z AUTO VRB03KT 10SM BKN075 06/M01 A3007 RMK AO2 SLP189 T00611011
Loading
Personal Weather Stations






























Interactive Weather Map New forecast layout! Learn more

10-Day Weather Forecast

Advertisements
Track Severe Weather on mobile